Time;durP1;ratioP1;P1;durP2;ratioP2;P2;SDS_P1;SDS_P2;PMS_P1;PMS_P2;Temp;Humidity;BMP_temperature;BMP_pressure;BME280_temperature;BME280_humidity;BME280_pressure;Samples;Min_cycle;Max_cycle;Signal;HPM_P1;HPM_P2
2022/12/26 00:01:20;;;;;;;0.68;0.68;;;10.20;99.90;;;;;;5035806;28;20491;-77
2022/12/26 00:03:50;;;;;;;1.30;0.80;;;10.20;99.90;;;;;;5057357;28;20667;-77
2022/12/26 00:06:21;;;;;;;0.80;0.80;;;10.30;99.90;;;;;;5063334;28;20427;-77
2022/12/26 00:08:48;;;;;;;0.38;0.38;;;10.30;99.90;;;;;;5067048;28;20447;-77
2022/12/26 00:11:16;;;;;;;0.50;0.50;;;10.30;99.90;;;;;;5070674;28;20439;-77
2022/12/26 00:13:43;;;;;;;0.77;0.77;;;10.30;99.90;;;;;;5059610;28;20447;-76
2022/12/26 00:16:12;;;;;;;0.80;0.80;;;10.40;99.90;;;;;;5050344;28;20926;-77
2022/12/26 00:18:40;;;;;;;0.40;0.40;;;10.40;99.90;;;;;;5067298;28;20456;-77
2022/12/26 00:21:08;;;;;;;1.20;0.80;;;10.40;99.90;;;;;;5059251;28;20508;-77
2022/12/26 00:23:36;;;;;;;0.63;0.63;;;10.40;99.90;;;;;;5059169;28;20441;-77
2022/12/26 00:26:05;;;;;;;1.40;1.30;;;10.40;99.90;;;;;;5053408;28;20460;-77
2022/12/26 00:28:32;;;;;;;2.87;0.90;;;10.30;99.90;;;;;;5043576;28;20437;-76
2022/12/26 00:31:06;;;;;;;0.52;0.52;;;10.40;99.90;;;;;;5050331;28;20524;-77
2022/12/26 00:33:34;;;;;;;0.50;0.50;;;10.30;99.90;;;;;;5051597;28;20429;-78
2022/12/26 00:36:10;;;;;;;0.68;0.55;;;10.40;99.90;;;;;;5056482;28;20908;-77
2022/12/26 00:38:37;;;;;;;0.50;0.50;;;10.40;99.90;;;;;;5057944;28;20515;-77
2022/12/26 00:41:08;;;;;;;1.30;0.60;;;10.50;99.90;;;;;;5059914;28;20425;-77
2022/12/26 00:43:35;;;;;;;2.10;0.70;;;10.50;99.90;;;;;;5065988;28;20460;-77
2022/12/26 00:46:05;;;;;;;0.50;0.50;;;10.40;99.90;;;;;;5061149;28;20481;-77
2022/12/26 00:48:32;;;;;;;1.08;0.73;;;10.40;99.90;;;;;;5054367;28;20524;-77
2022/12/26 00:51:02;;;;;;;0.65;0.65;;;10.40;99.90;;;;;;5051806;28;20588;-77
2022/12/26 00:53:29;;;;;;;0.40;0.40;;;10.30;99.90;;;;;;5060689;28;20439;-76
2022/12/26 00:55:56;;;;;;;0.63;0.63;;;10.30;99.90;;;;;;5060916;28;20466;-76
2022/12/26 00:58:26;;;;;;;1.00;1.00;;;10.30;99.90;;;;;;5056141;28;21141;-75
2022/12/26 01:01:08;;;;;;;0.47;0.47;;;10.30;99.90;;;;;;5046822;28;20981;-75
2022/12/26 01:03:38;;;;;;;0.50;0.50;;;10.30;99.90;;;;;;5057471;28;20485;-75
2022/12/26 01:06:07;;;;;;;0.32;0.32;;;10.30;99.90;;;;;;5058370;28;20440;-75
2022/12/26 01:08:34;;;;;;;0.82;0.82;;;10.30;99.90;;;;;;5059162;28;20435;-75
2022/12/26 01:11:04;;;;;;;0.57;0.50;;;10.30;99.90;;;;;;5068584;28;20509;-75
2022/12/26 01:13:31;;;;;;;0.47;0.47;;;10.40;99.90;;;;;;5060116;28;20426;-75
2022/12/26 01:15:57;;;;;;;0.70;0.70;;;10.30;99.90;;;;;;5054869;28;20430;-75
2022/12/26 01:18:24;;;;;;;1.20;0.95;;;10.30;99.90;;;;;;5057315;28;20429;-75
2022/12/26 01:20:57;;;;;;;0.38;0.38;;;10.30;99.90;;;;;;5038086;28;20433;-75
2022/12/26 01:23:27;;;;;;;1.02;0.52;;;10.30;99.90;;;;;;5056932;28;20433;-75
2022/12/26 01:25:53;;;;;;;1.23;0.80;;;10.20;99.90;;;;;;5049365;28;20443;-75
2022/12/26 01:28:40;;;;;;;0.73;0.73;;;10.20;99.90;;;;;;5065837;28;20435;-75
2022/12/26 01:31:07;;;;;;;1.45;0.63;;;10.20;99.90;;;;;;5049992;28;20434;-75
2022/12/26 01:33:34;;;;;;;0.97;0.70;;;10.20;99.90;;;;;;5063151;28;20911;-75
2022/12/26 01:36:01;;;;;;;0.50;0.50;;;10.20;99.90;;;;;;5036099;28;20440;-77
2022/12/26 01:38:28;;;;;;;0.50;0.50;;;10.20;99.90;;;;;;5048601;28;20455;-75
2022/12/26 01:43:49;;;;;;;0.60;0.50;;;10.20;99.90;;;;;;5056954;28;20971;-75
2022/12/26 01:46:21;;;;;;;0.57;0.57;;;10.20;99.90;;;;;;5053158;28;20827;-75
2022/12/26 01:48:48;;;;;;;0.68;0.68;;;10.20;99.90;;;;;;5054697;28;20454;-75
2022/12/26 01:51:17;;;;;;;0.82;0.82;;;10.20;99.90;;;;;;5054672;28;20472;-76
2022/12/26 01:53:51;;;;;;;0.65;0.63;;;10.20;99.90;;;;;;5056996;28;20434;-76
2022/12/26 01:56:28;;;;;;;0.70;0.70;;;10.20;99.90;;;;;;5059177;28;20523;-75
2022/12/26 01:59:01;;;;;;;0.75;0.75;;;10.20;99.90;;;;;;5064458;28;20520;-76
2022/12/26 02:01:30;;;;;;;0.47;0.47;;;10.20;99.90;;;;;;5056514;28;20463;-75
2022/12/26 02:06:49;;;;;;;0.50;0.50;;;10.30;99.90;;;;;;5050706;28;20512;-75
2022/12/26 02:09:17;;;;;;;0.70;0.70;;;10.30;99.90;;;;;;5050035;28;20472;-76
2022/12/26 02:11:50;;;;;;;0.35;0.35;;;10.30;99.90;;;;;;5054597;28;20436;-75
2022/12/26 02:14:38;;;;;;;0.30;0.30;;;10.20;99.90;;;;;;5057304;28;20420;-76
2022/12/26 02:17:06;;;;;;;1.90;0.60;;;10.10;99.90;;;;;;5058349;28;20532;-77
2022/12/26 02:20:08;;;;;;;0.65;0.65;;;10.10;99.90;;;;;;5062427;28;20438;-77
2022/12/26 02:23:14;;;;;;;0.40;0.40;;;10.10;99.90;;;;;;4975226;28;20501;-76
2022/12/26 02:26:20;;;;;;;0.70;0.70;;;10.30;99.90;;;;;;4974360;28;20528;-76
2022/12/26 02:29:16;;;;;;;0.60;0.60;;;10.30;99.90;;;;;;4975375;28;20479;-76
2022/12/26 02:32:03;;;;;;;0.40;0.40;;;10.30;99.90;;;;;;4988157;28;20513;-76
2022/12/26 02:34:57;;;;;;;1.25;0.70;;;10.20;99.90;;;;;;4979790;28;20440;-76
2022/12/26 02:38:07;;;;;;;0.88;0.88;;;10.20;99.90;;;;;;4968990;28;20435;-76
2022/12/26 02:41:04;;;;;;;0.67;0.60;;;10.20;99.90;;;;;;4963958;28;20438;-76
2022/12/26 02:43:35;;;;;;;0.70;0.70;;;10.20;99.90;;;;;;4960044;28;20622;-76
2022/12/26 02:49:30;;;;;;;0.60;0.60;;;10.20;99.90;;;;;;4981813;28;20453;-76
2022/12/26 03:18:57;;;;;;;1.33;0.60;;;10.30;99.90;;;;;;5004136;28;21071;-76
2022/12/26 03:21:31;;;;;;;0.55;0.55;;;10.20;99.90;;;;;;4993332;28;20439;-77
2022/12/26 03:23:59;;;;;;;0.90;0.82;;;10.20;99.90;;;;;;5008051;28;20440;-76
2022/12/26 03:26:39;;;;;;;0.60;0.60;;;10.20;99.90;;;;;;5008932;28;20447;-76
2022/12/26 03:32:06;;;;;;;0.63;0.50;;;10.20;99.90;;;;;;5005642;28;20459;-76
2022/12/26 03:34:38;;;;;;;0.93;0.50;;;10.20;99.90;;;;;;5026342;28;20433;-76
2022/12/26 03:37:27;;;;;;;0.70;0.70;;;10.20;99.90;;;;;;5062833;28;20460;-76
2022/12/26 04:20:02;;;;;;;0.47;0.47;;;9.70;99.90;;;;;;5052005;28;20425;-76
2022/12/26 04:46:43;;;;;;;0.40;0.40;;;9.80;99.90;;;;;;4996517;28;20446;-76
2022/12/26 04:51:59;;;;;;;1.83;0.40;;;10.10;99.90;;;;;;5005728;28;20437;-76
2022/12/26 04:54:26;;;;;;;0.65;0.47;;;10.30;99.90;;;;;;5002039;28;20428;-76
2022/12/26 04:56:53;;;;;;;1.63;0.85;;;10.40;99.90;;;;;;5005148;28;20753;-76
2022/12/26 04:59:23;;;;;;;0.38;0.38;;;10.40;99.90;;;;;;5006819;28;20927;-76
2022/12/26 05:10:18;;;;;;;0.40;0.40;;;10.50;99.90;;;;;;5062727;28;20429;-76
2022/12/26 05:12:48;;;;;;;1.63;0.50;;;10.50;99.90;;;;;;5047029;28;20444;-76
2022/12/26 05:15:15;;;;;;;0.65;0.45;;;10.60;99.90;;;;;;5057600;28;20463;-76
2022/12/26 05:29:08;;;;;;;0.30;0.30;;;10.90;99.90;;;;;;5059270;28;21052;-76
2022/12/26 05:31:34;;;;;;;0.70;0.30;;;10.90;99.90;;;;;;5050585;28;20429;-76
2022/12/26 05:34:07;;;;;;;1.25;0.52;;;10.90;99.90;;;;;;5054318;28;21086;-77
2022/12/26 05:36:45;;;;;;;0.50;0.50;;;10.90;99.90;;;;;;5058105;28;20438;-76
2022/12/26 05:39:12;;;;;;;0.40;0.40;;;10.90;99.90;;;;;;5054131;28;20433;-76
2022/12/26 05:41:39;;;;;;;2.47;0.70;;;10.80;99.90;;;;;;5060903;28;20428;-76
2022/12/26 05:44:06;;;;;;;0.68;0.68;;;10.80;99.90;;;;;;5051663;28;20428;-76
2022/12/26 05:46:34;;;;;;;0.70;0.70;;;10.70;99.90;;;;;;5053493;28;20494;-77
2022/12/26 05:49:02;;;;;;;0.40;0.40;;;10.70;99.90;;;;;;5039185;28;20903;-77
2022/12/26 05:51:28;;;;;;;3.00;0.60;;;10.70;99.90;;;;;;5049910;28;20419;-77
2022/12/26 05:53:55;;;;;;;0.50;0.50;;;10.60;99.90;;;;;;5054941;28;20434;-76
2022/12/26 05:56:22;;;;;;;0.50;0.50;;;10.60;99.90;;;;;;5049083;28;20427;-76
2022/12/26 05:58:57;;;;;;;0.50;0.50;;;10.60;99.90;;;;;;5058826;28;20436;-77
2022/12/26 06:01:26;;;;;;;1.30;0.50;;;10.60;99.90;;;;;;5058700;28;20428;-76
2022/12/26 06:03:56;;;;;;;0.47;0.47;;;10.60;99.90;;;;;;5060388;28;20472;-77
2022/12/26 06:06:24;;;;;;;0.47;0.45;;;10.50;99.90;;;;;;5060627;28;20456;-76
2022/12/26 06:08:53;;;;;;;0.50;0.50;;;10.50;99.90;;;;;;5052521;28;20920;-76
2022/12/26 06:11:25;;;;;;;0.40;0.40;;;10.50;99.90;;;;;;5057101;28;20431;-76
2022/12/26 06:13:53;;;;;;;0.43;0.43;;;10.50;99.90;;;;;;5061889;28;20459;-76
2022/12/26 06:16:20;;;;;;;0.57;0.47;;;10.50;99.90;;;;;;5060249;28;20420;-76
2022/12/26 06:18:48;;;;;;;0.70;0.50;;;10.60;99.90;;;;;;5056129;28;20478;-76
2022/12/26 06:21:18;;;;;;;0.60;0.60;;;10.60;99.90;;;;;;5060144;28;20516;-77
2022/12/26 06:23:45;;;;;;;0.43;0.43;;;10.60;99.90;;;;;;5048880;28;20467;-76
2022/12/26 06:26:13;;;;;;;0.52;0.52;;;10.60;99.90;;;;;;5057958;28;20518;-76
2022/12/26 06:28:40;;;;;;;0.63;0.63;;;10.70;99.90;;;;;;5056978;28;20520;-76
2022/12/26 06:31:19;;;;;;;0.73;0.73;;;10.60;99.90;;;;;;5051010;28;20465;-76
2022/12/26 06:33:53;;;;;;;0.40;0.40;;;10.70;99.90;;;;;;5061312;28;20431;-76
2022/12/26 06:36:22;;;;;;;0.43;0.43;;;10.60;99.90;;;;;;5061811;28;20436;-73
2022/12/26 06:38:49;;;;;;;0.90;0.90;;;10.70;99.90;;;;;;5055544;28;20547;-74
2022/12/26 06:41:20;;;;;;;0.50;0.50;;;10.80;99.90;;;;;;5054656;28;20541;-73
2022/12/26 06:43:50;;;;;;;0.53;0.43;;;10.80;99.90;;;;;;5057219;28;20941;-73
2022/12/26 06:46:20;;;;;;;1.27;0.68;;;10.70;99.90;;;;;;5054953;28;20436;-73
2022/12/26 06:48:54;;;;;;;0.60;0.30;;;10.70;99.90;;;;;;5000229;28;2029427;-73
2022/12/26 06:51:23;;;;;;;1.25;0.70;;;10.70;99.90;;;;;;5056081;28;20464;-73
2022/12/26 06:53:54;;;;;;;1.10;0.63;;;10.60;99.90;;;;;;5057955;28;20436;-73
2022/12/26 06:56:24;;;;;;;0.60;0.33;;;10.60;99.90;;;;;;5064786;28;20936;-73
2022/12/26 06:58:53;;;;;;;0.70;0.70;;;10.50;99.90;;;;;;5079689;28;20437;-73
2022/12/26 07:01:21;;;;;;;0.90;0.53;;;10.50;99.90;;;;;;5055079;28;20429;-73
2022/12/26 07:03:48;;;;;;;0.80;0.60;;;10.60;99.90;;;;;;5050663;28;20944;-74
2022/12/26 07:06:22;;;;;;;0.50;0.50;;;10.60;99.90;;;;;;5052868;28;20437;-73
2022/12/26 07:08:50;;;;;;;0.60;0.38;;;10.60;99.90;;;;;;5066268;28;20431;-73
2022/12/26 07:11:20;;;;;;;0.60;0.43;;;10.50;99.90;;;;;;5064716;28;20427;-73
2022/12/26 07:13:47;;;;;;;1.00;0.70;;;10.50;99.90;;;;;;5077611;28;20438;-73
2022/12/26 07:16:17;;;;;;;0.90;0.30;;;10.50;99.90;;;;;;5063835;28;20424;-74
2022/12/26 07:18:44;;;;;;;0.50;0.50;;;10.40;99.90;;;;;;5051954;28;20476;-73
2022/12/26 07:21:16;;;;;;;0.67;0.67;;;10.40;99.90;;;;;;5057630;28;20437;-74
2022/12/26 07:23:46;;;;;;;0.98;0.60;;;10.40;99.90;;;;;;5056042;28;20843;-73
2022/12/26 07:26:13;;;;;;;0.50;0.50;;;10.40;99.90;;;;;;5049290;28;21169;-73
2022/12/26 07:28:39;;;;;;;0.35;0.35;;;10.50;99.90;;;;;;5050269;28;20439;-73
2022/12/26 07:31:06;;;;;;;0.40;0.40;;;10.50;99.90;;;;;;5062629;28;20435;-73
2022/12/26 07:33:34;;;;;;;0.65;0.57;;;10.40;99.90;;;;;;5064804;28;21217;-73
2022/12/26 07:36:05;;;;;;;0.50;0.50;;;10.40;99.90;;;;;;5058616;28;20437;-74
2022/12/26 07:38:32;;;;;;;0.60;0.40;;;10.40;99.90;;;;;;5052667;28;20466;-73
2022/12/26 07:41:56;;;;;;;1.50;0.77;;;10.50;99.90;;;;;;5060468;28;20434;-73
2022/12/26 07:43:50;;;;;;;0.50;0.50;;;10.50;99.90;;;;;;5052332;28;20445;-74
2022/12/26 07:46:17;;;;;;;1.10;0.50;;;10.50;99.90;;;;;;5061528;28;20432;-74
2022/12/26 07:48:44;;;;;;;0.30;0.30;;;10.50;99.90;;;;;;5050960;28;20440;-73
2022/12/26 07:51:12;;;;;;;1.95;0.57;;;10.50;99.90;;;;;;5060870;28;20928;-73
2022/12/26 07:53:38;;;;;;;0.30;0.30;;;10.60;99.90;;;;;;5056565;28;20487;-73
2022/12/26 07:56:05;;;;;;;1.20;0.50;;;10.50;99.90;;;;;;5069626;28;20423;-73
2022/12/26 07:58:32;;;;;;;0.38;0.38;;;10.40;99.90;;;;;;5063116;28;20502;-72
2022/12/26 08:01:01;;;;;;;0.63;0.47;;;10.30;99.90;;;;;;5043109;28;20807;-73
2022/12/26 08:03:27;;;;;;;0.57;0.52;;;10.30;99.90;;;;;;5062166;28;20512;-73
2022/12/26 08:05:55;;;;;;;0.40;0.40;;;10.20;99.90;;;;;;5078181;28;20465;-72
2022/12/26 08:08:24;;;;;;;0.60;0.40;;;10.20;99.90;;;;;;5065823;28;20959;-73
2022/12/26 08:11:14;;;;;;;0.45;0.45;;;10.10;99.90;;;;;;5058077;28;20436;-73
2022/12/26 08:13:45;;;;;;;0.30;0.30;;;10.10;99.90;;;;;;5057120;28;20433;-72
2022/12/26 08:16:13;;;;;;;0.50;0.50;;;10.10;99.90;;;;;;5066959;28;20445;-73
2022/12/26 08:18:41;;;;;;;0.80;0.60;;;10.00;99.90;;;;;;5059225;28;20427;-72
2022/12/26 08:21:08;;;;;;;3.03;0.50;;;10.00;99.90;;;;;;5061394;28;20881;-72
2022/12/26 08:23:35;;;;;;;0.63;0.63;;;10.00;99.90;;;;;;5045804;28;20435;-72
2022/12/26 08:26:06;;;;;;;0.80;0.80;;;10.00;99.90;;;;;;5058547;28;20431;-73
2022/12/26 08:28:34;;;;;;;0.70;0.70;;;9.90;99.90;;;;;;5045592;28;20486;-73
2022/12/26 08:31:11;;;;;;;0.20;0.20;;;10.00;99.90;;;;;;5042159;28;21023;-73
2022/12/26 08:33:38;;;;;;;0.40;0.40;;;10.00;99.90;;;;;;5050279;28;20433;-73
2022/12/26 08:36:07;;;;;;;0.40;0.40;;;10.00;99.90;;;;;;5051855;28;20427;-73
2022/12/26 08:38:34;;;;;;;0.40;0.40;;;10.00;99.90;;;;;;5052009;28;20540;-73
2022/12/26 08:41:01;;;;;;;0.73;0.73;;;10.00;99.90;;;;;;5041498;28;20533;-74
2022/12/26 08:43:29;;;;;;;0.70;0.70;;;10.00;99.90;;;;;;5053347;28;20446;-73
2022/12/26 08:46:16;;;;;;;0.60;0.60;;;10.10;99.90;;;;;;5055494;28;20424;-73
2022/12/26 08:48:44;;;;;;;0.40;0.40;;;10.10;99.90;;;;;;5051669;28;20434;-73
2022/12/26 08:51:16;;;;;;;1.60;0.50;;;10.10;99.90;;;;;;5036575;28;20434;-74
2022/12/26 08:53:45;;;;;;;0.43;0.43;;;10.20;99.90;;;;;;5053414;28;20442;-73
2022/12/26 08:56:14;;;;;;;0.70;0.60;;;10.20;99.90;;;;;;5064311;28;20512;-73
2022/12/26 08:58:42;;;;;;;0.80;0.50;;;10.10;99.90;;;;;;5055725;28;20437;-73
2022/12/26 09:01:14;;;;;;;0.47;0.47;;;10.20;99.90;;;;;;5057441;28;20434;-73
2022/12/26 09:03:42;;;;;;;0.47;0.47;;;10.20;99.90;;;;;;5052551;28;20443;-73
2022/12/26 09:06:11;;;;;;;0.32;0.32;;;10.20;99.90;;;;;;5053662;28;20495;-73
2022/12/26 09:08:38;;;;;;;0.70;0.50;;;10.20;99.90;;;;;;5061368;28;20435;-73
2022/12/26 09:11:16;;;;;;;0.40;0.40;;;10.30;99.90;;;;;;5040820;28;20499;-73
2022/12/26 09:13:43;;;;;;;0.43;0.43;;;10.30;99.90;;;;;;5049624;28;22274;-73
2022/12/26 09:16:16;;;;;;;0.60;0.47;;;10.30;99.90;;;;;;5064499;28;20427;-73
2022/12/26 09:18:44;;;;;;;0.60;0.60;;;10.30;99.90;;;;;;5062611;28;21159;-73
2022/12/26 09:21:13;;;;;;;0.70;0.38;;;10.30;99.90;;;;;;5050021;28;20433;-73
2022/12/26 09:23:42;;;;;;;0.57;0.30;;;10.30;99.90;;;;;;5053859;28;20460;-73
2022/12/26 09:26:13;;;;;;;1.00;0.40;;;10.30;99.90;;;;;;5053099;28;20433;-73
2022/12/26 09:28:44;;;;;;;0.65;0.65;;;10.40;99.90;;;;;;5048924;28;20939;-73
2022/12/26 09:31:13;;;;;;;1.20;0.40;;;10.40;99.90;;;;;;5056320;28;20452;-73
2022/12/26 09:33:40;;;;;;;0.30;0.30;;;10.40;99.90;;;;;;5061042;28;20433;-73
2022/12/26 09:36:19;;;;;;;0.43;0.43;;;10.40;99.90;;;;;;5056178;28;20429;-73
2022/12/26 09:38:47;;;;;;;0.20;0.20;;;10.40;99.90;;;;;;5053619;28;20423;-73
2022/12/26 09:41:32;;;;;;;0.30;0.30;;;10.40;99.90;;;;;;5056516;28;20423;-73
2022/12/26 09:44:05;;;;;;;0.35;0.35;;;10.50;99.90;;;;;;5036165;28;20444;-74
2022/12/26 09:46:41;;;;;;;0.53;0.50;;;10.50;99.90;;;;;;5039996;28;20501;-74
2022/12/26 09:49:12;;;;;;;0.30;0.30;;;10.50;99.90;;;;;;5059592;28;20447;-74
2022/12/26 09:51:43;;;;;;;1.10;0.50;;;10.60;99.90;;;;;;5053824;28;20527;-74
2022/12/26 09:54:32;;;;;;;0.40;0.40;;;10.60;99.90;;;;;;5055024;28;20429;-74
2022/12/26 09:57:01;;;;;;;0.70;0.50;;;10.80;99.90;;;;;;5056036;28;20427;-73
2022/12/26 09:59:33;;;;;;;0.47;0.47;;;10.80;99.90;;;;;;5058123;28;20830;-74
2022/12/26 10:02:00;;;;;;;0.30;0.30;;;10.80;99.90;;;;;;5056374;28;20439;-74
2022/12/26 10:04:28;;;;;;;0.40;0.40;;;10.80;99.90;;;;;;5053189;28;20433;-74
2022/12/26 10:07:14;;;;;;;0.73;0.73;;;10.70;99.90;;;;;;5056477;28;20435;-74
2022/12/26 10:10:08;;;;;;;0.45;0.38;;;10.70;99.90;;;;;;5056921;28;20431;-74
2022/12/26 10:12:54;;;;;;;0.40;0.40;;;10.80;99.90;;;;;;5054663;28;20523;-74
2022/12/26 10:15:40;;;;;;;0.20;0.20;;;10.80;99.90;;;;;;5042001;28;20968;-74
2022/12/26 10:18:39;;;;;;;0.40;0.40;;;10.90;99.90;;;;;;5056906;28;20428;-74
2022/12/26 10:21:24;;;;;;;0.30;0.30;;;11.00;99.90;;;;;;5055893;28;20431;-74
2022/12/26 10:24:11;;;;;;;0.90;0.40;;;11.10;99.90;;;;;;5055368;28;20444;-74
2022/12/26 10:26:51;;;;;;;0.30;0.30;;;11.00;99.90;;;;;;5048173;28;20429;-74
2022/12/26 10:29:27;;;;;;;0.20;0.20;;;11.00;99.90;;;;;;5054278;28;20440;-74
2022/12/26 10:32:24;;;;;;;0.30;0.30;;;10.90;99.90;;;;;;5060052;28;20427;-74
2022/12/26 10:34:54;;;;;;;0.50;0.45;;;10.90;99.90;;;;;;5040648;28;20459;-74
2022/12/26 10:37:30;;;;;;;0.20;0.20;;;10.90;99.90;;;;;;5059753;28;20427;-74
2022/12/26 10:40:21;;;;;;;0.55;0.45;;;10.90;99.90;;;;;;5057164;28;20440;-74
2022/12/26 10:42:56;;;;;;;0.60;0.50;;;10.90;99.90;;;;;;5052319;28;20448;-74
2022/12/26 10:45:44;;;;;;;0.30;0.30;;;10.90;99.90;;;;;;5042095;28;20559;-73
2022/12/26 10:48:15;;;;;;;0.60;0.50;;;11.00;99.90;;;;;;5053640;28;20431;-73
2022/12/26 10:50:55;;;;;;;0.40;0.40;;;11.20;99.90;;;;;;5056547;28;20433;-74
2022/12/26 10:53:22;;;;;;;0.20;0.20;;;11.20;99.90;;;;;;5053749;28;20432;-74
2022/12/26 10:55:50;;;;;;;0.40;0.40;;;11.30;99.90;;;;;;5052229;28;20477;-74
2022/12/26 10:58:29;;;;;;;0.22;0.22;;;11.30;99.90;;;;;;5053548;28;20441;-74
2022/12/26 11:01:10;;;;;;;0.30;0.30;;;11.30;99.90;;;;;;5039932;28;20436;-73
2022/12/26 11:03:53;;;;;;;0.28;0.28;;;11.20;99.90;;;;;;5055310;28;20980;-71
2022/12/26 11:06:24;;;;;;;0.70;0.30;;;11.10;99.90;;;;;;5057855;28;20463;-73
2022/12/26 11:08:51;;;;;;;0.40;0.40;;;11.00;99.90;;;;;;5061713;28;20436;-73
2022/12/26 11:11:44;;;;;;;0.30;0.30;;;10.80;99.90;;;;;;5060774;28;20433;-72
2022/12/26 11:14:36;;;;;;;0.10;0.10;;;10.70;99.90;;;;;;5057515;28;20423;-71
2022/12/26 11:17:30;;;;;;;0.27;0.27;;;10.60;99.90;;;;;;5058972;28;20427;-72
2022/12/26 11:20:15;;;;;;;0.40;0.40;;;10.50;99.90;;;;;;5057059;28;20906;-72
2022/12/26 11:22:43;;;;;;;0.20;0.20;;;10.60;99.90;;;;;;5056772;28;20433;-73
2022/12/26 11:25:23;;;;;;;1.60;0.20;;;10.70;99.90;;;;;;5063700;28;20433;-73
2022/12/26 11:27:54;;;;;;;0.27;0.27;;;10.80;99.90;;;;;;5061807;28;21235;-74
2022/12/26 11:30:23;;;;;;;0.20;0.20;;;10.90;99.90;;;;;;5063207;28;20431;-72
2022/12/26 11:33:01;;;;;;;1.40;0.45;;;10.90;99.90;;;;;;5051330;28;20447;-73
2022/12/26 11:35:35;;;;;;;0.70;0.40;;;11.00;99.90;;;;;;5056315;28;20523;-73
2022/12/26 11:38:05;;;;;;;0.20;0.20;;;11.00;99.90;;;;;;5058074;28;20990;-73
2022/12/26 11:41:30;;;;;;;0.40;0.40;;;11.10;99.90;;;;;;5053772;28;20427;-73
2022/12/26 11:43:32;;;;;;;0.30;0.30;;;11.10;99.90;;;;;;5056965;28;20956;-73
2022/12/26 11:45:59;;;;;;;0.40;0.40;;;11.10;99.90;;;;;;5059794;28;20809;-73
2022/12/26 11:48:27;;;;;;;0.40;0.40;;;11.00;99.90;;;;;;5058544;28;20424;-73
2022/12/26 11:50:53;;;;;;;0.30;0.28;;;10.90;99.90;;;;;;5056790;28;20434;-73
2022/12/26 11:53:22;;;;;;;0.40;0.40;;;10.80;99.90;;;;;;5058691;28;20450;-74
2022/12/26 11:55:59;;;;;;;0.20;0.20;;;10.80;99.90;;;;;;5052202;28;20437;-73
2022/12/26 11:58:29;;;;;;;0.32;0.32;;;10.80;99.90;;;;;;5057925;28;20431;-73
2022/12/26 12:00:58;;;;;;;0.47;0.30;;;10.80;99.90;;;;;;5053273;28;20454;-73
2022/12/26 12:03:47;;;;;;;0.50;0.50;;;10.90;99.90;;;;;;5054002;28;20442;-73
2022/12/26 12:06:42;;;;;;;0.30;0.30;;;10.90;99.90;;;;;;5054179;28;20433;-73
2022/12/26 12:09:42;;;;;;;0.20;0.20;;;10.90;99.90;;;;;;5064962;28;20787;-74
2022/12/26 12:12:16;;;;;;;0.22;0.22;;;11.00;99.90;;;;;;5050464;28;21202;-73
2022/12/26 12:14:48;;;;;;;0.40;0.40;;;11.00;99.90;;;;;;5056682;28;20441;-74
2022/12/26 12:17:23;;;;;;;0.30;0.30;;;11.10;99.90;;;;;;5052746;28;20460;-73
2022/12/26 12:20:01;;;;;;;0.40;0.40;;;11.20;99.90;;;;;;5052063;28;20427;-74
2022/12/26 12:22:56;;;;;;;0.30;0.30;;;11.40;99.90;;;;;;5053865;28;20483;-73
2022/12/26 12:25:41;;;;;;;0.15;0.15;;;11.50;99.90;;;;;;5047971;28;21050;-73
2022/12/26 12:28:28;;;;;;;0.25;0.25;;;11.70;99.90;;;;;;5056174;28;20442;-73
2022/12/26 12:31:22;;;;;;;0.30;0.30;;;11.70;99.90;;;;;;5055776;28;20431;-74
2022/12/26 12:33:52;;;;;;;0.22;0.22;;;11.70;99.90;;;;;;5055435;28;20518;-74
2022/12/26 12:36:34;;;;;;;0.40;0.40;;;11.70;99.90;;;;;;5053968;28;20425;-75
2022/12/26 12:39:10;;;;;;;0.30;0.30;;;11.80;99.90;;;;;;5052497;28;21060;-73
2022/12/26 12:42:08;;;;;;;0.40;0.30;;;11.70;99.90;;;;;;5056978;28;20452;-73
2022/12/26 12:44:49;;;;;;;0.40;0.40;;;11.70;99.90;;;;;;5013270;28;20423;-73
2022/12/26 12:48:04;;;;;;;1.70;0.30;;;11.70;99.90;;;;;;5054475;28;20471;-72
2022/12/26 12:50:48;;;;;;;0.30;0.30;;;11.70;99.90;;;;;;5050142;28;20467;-73
2022/12/26 12:53:24;;;;;;;0.20;0.20;;;11.60;99.90;;;;;;5056844;28;20419;-73
2022/12/26 12:56:08;;;;;;;0.30;0.30;;;11.60;99.90;;;;;;5056727;28;20945;-73
2022/12/26 12:58:57;;;;;;;0.50;0.40;;;11.60;99.90;;;;;;5056466;28;20428;-73
2022/12/26 13:01:32;;;;;;;0.20;0.20;;;11.70;99.90;;;;;;5053693;28;20439;-72
2022/12/26 13:04:13;;;;;;;0.60;0.30;;;11.80;99.90;;;;;;5050182;28;20447;-73
2022/12/26 13:06:45;;;;;;;0.30;0.30;;;11.80;99.90;;;;;;5039618;28;20465;-74
2022/12/26 13:09:27;;;;;;;0.32;0.32;;;11.80;99.90;;;;;;5052708;28;20443;-73
2022/12/26 13:12:02;;;;;;;0.40;0.40;;;11.80;99.90;;;;;;5060342;28;20431;-73
2022/12/26 13:14:45;;;;;;;0.20;0.20;;;11.70;99.90;;;;;;5054846;28;20435;-74
2022/12/26 13:17:35;;;;;;;0.20;0.20;;;11.60;99.90;;;;;;5056175;28;20977;-74
2022/12/26 13:20:15;;;;;;;0.40;0.40;;;11.70;99.90;;;;;;5054806;28;20427;-73
2022/12/26 13:25:49;;;;;;;0.30;0.30;;;11.80;99.90;;;;;;5044490;28;20461;-74
2022/12/26 13:28:23;;;;;;;0.30;0.30;;;11.80;99.90;;;;;;5049443;28;20529;-74
2022/12/26 13:30:54;;;;;;;2.07;0.37;;;11.80;99.90;;;;;;5063077;28;20465;-74
2022/12/26 13:33:21;;;;;;;0.22;0.22;;;11.90;99.90;;;;;;5047843;28;20452;-73
2022/12/26 13:35:51;;;;;;;0.40;0.27;;;11.80;99.90;;;;;;5043309;28;20452;-73
2022/12/26 13:38:19;;;;;;;0.20;0.20;;;11.90;99.90;;;;;;5046850;28;21903;-74
2022/12/26 13:40:53;;;;;;;1.80;0.30;;;11.80;99.90;;;;;;5051478;28;20440;-74
2022/12/26 13:46:53;;;;;;;0.30;0.30;;;11.80;99.90;;;;;;5041958;28;20444;-74
2022/12/26 13:49:34;;;;;;;0.30;0.30;;;11.80;99.90;;;;;;5042338;28;20440;-74
2022/12/26 13:52:10;;;;;;;0.30;0.30;;;11.70;99.90;;;;;;5042737;28;21365;-74
2022/12/26 13:55:05;;;;;;;0.20;0.20;;;11.70;99.90;;;;;;5050485;28;20436;-74
2022/12/26 13:57:41;;;;;;;0.22;0.22;;;11.60;99.90;;;;;;5054443;28;20431;-74
2022/12/26 14:00:46;;;;;;;0.30;0.30;;;11.60;99.90;;;;;;5056457;28;20420;-75
2022/12/26 14:03:39;;;;;;;0.20;0.20;;;11.60;99.90;;;;;;5048745;28;20540;-74
2022/12/26 14:06:40;;;;;;;0.20;0.20;;;11.50;99.90;;;;;;5061421;28;20433;-74
2022/12/26 14:09:30;;;;;;;0.60;0.50;;;11.40;99.90;;;;;;5054761;28;20833;-74
2022/12/26 14:12:20;;;;;;;0.32;0.30;;;11.30;99.90;;;;;;5052647;28;20516;-74
2022/12/26 14:15:08;;;;;;;1.08;0.47;;;11.30;99.90;;;;;;5031614;28;20696;-74
2022/12/26 14:17:59;;;;;;;0.35;0.35;;;11.30;99.90;;;;;;5051078;28;20465;-75
2022/12/26 14:20:55;;;;;;;0.63;0.30;;;11.30;99.90;;;;;;5056444;28;20436;-74
2022/12/26 14:23:39;;;;;;;0.30;0.30;;;11.20;99.90;;;;;;5008484;28;20420;-74
2022/12/26 14:26:17;;;;;;;1.33;0.32;;;11.20;99.90;;;;;;5055806;28;20425;-74
2022/12/26 14:29:28;;;;;;;0.40;0.20;;;11.20;99.90;;;;;;5058393;28;20512;-74
2022/12/26 14:32:10;;;;;;;0.70;0.40;;;11.20;99.90;;;;;;4995355;28;20427;-74
2022/12/26 14:34:43;;;;;;;0.20;0.20;;;11.20;99.90;;;;;;4992225;28;20440;-74
2022/12/26 14:37:54;;;;;;;0.20;0.20;;;11.10;99.90;;;;;;5004681;28;20431;-74
2022/12/26 14:40:28;;;;;;;0.40;0.30;;;11.10;99.90;;;;;;5001544;28;20435;-74
2022/12/26 14:43:10;;;;;;;0.52;0.30;;;11.10;99.90;;;;;;4991655;28;20789;-74
2022/12/26 14:45:37;;;;;;;0.20;0.20;;;11.10;99.90;;;;;;5003067;28;20468;-74
2022/12/26 14:48:15;;;;;;;0.17;0.17;;;11.10;99.90;;;;;;5016475;28;20442;-74
2022/12/26 14:51:14;;;;;;;0.20;0.20;;;11.10;99.90;;;;;;5003381;28;20426;-74
2022/12/26 14:53:43;;;;;;;0.20;0.20;;;11.10;99.90;;;;;;5005084;28;20979;-74
2022/12/26 14:56:19;;;;;;;0.22;0.22;;;11.00;99.90;;;;;;5003438;28;20523;-75
2022/12/26 14:58:50;;;;;;;0.20;0.20;;;10.80;99.90;;;;;;5009148;28;20521;-74
2022/12/26 15:01:22;;;;;;;0.45;0.30;;;10.80;99.90;;;;;;5015603;28;21120;-74
2022/12/26 15:04:10;;;;;;;0.30;0.30;;;10.70;99.90;;;;;;5056740;28;20525;-75
2022/12/26 15:07:03;;;;;;;0.30;0.30;;;10.70;99.90;;;;;;5057357;28;20939;-74
2022/12/26 15:09:45;;;;;;;0.40;0.20;;;10.70;99.90;;;;;;5054791;28;20913;-75
2022/12/26 15:12:54;;;;;;;0.20;0.20;;;10.70;99.90;;;;;;5056262;28;20941;-74
2022/12/26 15:15:46;;;;;;;0.20;0.20;;;10.70;99.90;;;;;;5066357;28;20852;-75
2022/12/26 15:18:31;;;;;;;0.32;0.32;;;10.70;99.90;;;;;;5056189;28;20505;-74
2022/12/26 15:21:23;;;;;;;1.90;0.50;;;10.60;99.90;;;;;;5054305;28;20436;-75
2022/12/26 15:24:20;;;;;;;0.30;0.30;;;10.60;99.90;;;;;;5037085;28;20431;-74
2022/12/26 15:27:12;;;;;;;0.28;0.28;;;10.60;99.90;;;;;;5055085;28;21036;-73
2022/12/26 15:30:14;;;;;;;0.20;0.20;;;10.50;99.90;;;;;;5066439;28;20506;-75
2022/12/26 15:32:59;;;;;;;0.20;0.20;;;10.10;99.90;;;;;;5009840;28;20992;-73
2022/12/26 15:35:34;;;;;;;0.30;0.13;;;9.60;99.90;;;;;;5056240;28;20429;-72
2022/12/26 15:38:30;;;;;;;0.20;0.20;;;9.20;99.90;;;;;;5060452;28;20435;-73
2022/12/26 15:41:12;;;;;;;0.10;0.10;;;8.90;99.90;;;;;;5061547;28;20467;-73
2022/12/26 15:43:58;;;;;;;0.10;0.10;;;8.70;99.90;;;;;;5065081;28;20985;-73